Time;durP1;ratioP1;P1;durP2;ratioP2;P2;SDS_P1;SDS_P2;PMS_P1;PMS_P2;Temp;Humidity;BMP_temperature;BMP_pressure;BME280_temperature;BME280_humidity;BME280_pressure;Samples;Min_cycle;Max_cycle;Signal;HPM_P1;HPM_P2
2023/01/16 00:00:13;;;;;;;;;;;;;;;;;;1040787;28;19975;-76
2023/01/16 00:00:44;;;;;;;;;;;;;;;;;;1041442;28;19913;-77
2023/01/16 00:01:15;;;;;;;;;;;;;;;;;;1043109;28;19919;-76
2023/01/16 00:01:46;;;;;;;;;;;;;;;;;;1043142;28;20467;-76
2023/01/16 00:02:17;;;;;;;;;;;;;;;;;;1044599;28;19913;-76
2023/01/16 00:02:48;;;;;;;;;;;;;;;;;;1046021;28;19975;-77
2023/01/16 00:03:19;;;;;;;;;;;;;;;;;;1038924;28;19917;-75
2023/01/16 00:03:49;;;;;;;;;;;;;;;;;;1034852;28;19914;-77
2023/01/16 00:04:20;;;;;;;;;;;;;;;;;;1039070;28;19913;-76
2023/01/16 00:04:51;;;;;;;;;;;;;;;;;;1034935;28;19917;-77
2023/01/16 00:05:22;;;;;;;;;;;;;;;;;;1039181;28;19913;-76
2023/01/16 00:05:53;;;;;;;;;;;;;;;;;;1042945;28;20585;-76
2023/01/16 00:06:24;;;;;;;;;;;;;;;;;;1038895;28;19917;-76
2023/01/16 00:06:55;;;;;;;;;;;;;;;;;;1043358;28;20425;-76
2023/01/16 00:07:25;;;;;;;;;;;;;;;;;;1042930;28;19958;-76
2023/01/16 00:07:57;;;;;;;;;;;;;;;;;;1042854;28;19909;-76
2023/01/16 00:08:27;;;;;;;;;;;;;;;;;;1038877;28;20372;-76
2023/01/16 00:08:58;;;;;;;;;;;;;;;;;;1038870;28;20292;-76
2023/01/16 00:09:29;;;;;;;;;;;;;;;;;;1039369;28;19924;-76
2023/01/16 00:10:00;;;;;;;;;;;;;;;;;;1043285;28;19909;-76
2023/01/16 00:10:31;;;;;;;;;;;;;;;;;;1042826;28;20662;-76
2023/01/16 00:11:02;;;;;;;;;;;;;;;;;;1043270;28;19909;-76
2023/01/16 00:11:33;;;;;;;;;;;;;;;;;;1043453;28;20332;-75
2023/01/16 00:12:04;;;;;;;;;;;;;;;;;;1043838;28;20467;-76
2023/01/16 00:12:34;;;;;;;;;;;;;;;;;;1048355;28;19912;-75
2023/01/16 00:13:05;;;;;;;;;;;;;;;;;;1048344;28;19962;-77
2023/01/16 00:13:36;;;;;;;;;;;;;;;;;;1048200;28;19999;-76
2023/01/16 00:14:07;;;;;;;;;;;;;;;;;;1048121;28;19908;-76
2023/01/16 00:14:38;;;;;;;;;;;;;;;;;;1048295;28;19985;-76
2023/01/16 00:15:09;;;;;;;;;;;;;;;;;;1044051;28;19909;-75
2023/01/16 00:15:40;;;;;;;;;;;;;;;;;;1044208;28;19908;-76
2023/01/16 00:16:11;;;;;;;;;;;;;;;;;;1048026;28;19915;-76
2023/01/16 00:16:41;;;;;;;;;;;;;;;;;;1045030;28;20655;-76
2023/01/16 00:17:12;;;;;;;;;;;;;;;;;;1043786;28;19959;-76
2023/01/16 00:17:43;;;;;;;;;;;;;;;;;;1047475;28;20363;-76
2023/01/16 00:18:14;;;;;;;;;;;;;;;;;;1043702;28;19951;-76
2023/01/16 00:18:45;;;;;;;;;;;;;;;;;;1043880;28;20659;-75
2023/01/16 00:19:16;;;;;;;;;;;;;;;;;;1046537;28;19904;-77
2023/01/16 00:19:47;;;;;;;;;;;;;;;;;;1037429;28;19917;-77
2023/01/16 00:20:18;;;;;;;;;;;;;;;;;;1039782;28;20308;-75
2023/01/16 00:20:48;;;;;;;;;;;;;;;;;;1041342;28;19996;-76
2023/01/16 00:21:19;;;;;;;;;;;;;;;;;;1043893;28;19915;-76
2023/01/16 00:21:50;;;;;;;;;;;;;;;;;;1047054;28;20450;-75
2023/01/16 00:22:21;;;;;;;;;;;;;;;;;;1048498;28;19916;-75
2023/01/16 00:22:52;;;;;;;;;;;;;;;;;;1043507;28;20019;-76
2023/01/16 00:23:23;;;;;;;;;;;;;;;;;;1043874;28;20352;-75
2023/01/16 00:23:54;;;;;;;;;;;;;;;;;;1043243;28;20000;-76
2023/01/16 00:24:25;;;;;;;;;;;;;;;;;;1043883;28;19909;-75
2023/01/16 00:24:55;;;;;;;;;;;;;;;;;;1042838;28;19909;-76
2023/01/16 00:25:26;;;;;;;;;;;;;;;;;;1039800;28;19909;-75
2023/01/16 00:25:57;;;;;;;;;;;;;;;;;;1035470;28;19930;-76
2023/01/16 00:26:28;;;;;;;;;;;;;;;;;;1035695;28;19913;-76
2023/01/16 00:26:59;;;;;;;;;;;;;;;;;;1035322;28;19960;-76
2023/01/16 00:27:30;;;;;;;;;;;;;;;;;;1039859;28;19913;-75
2023/01/16 00:28:01;;;;;;;;;;;;;;;;;;1043494;28;19970;-76
2023/01/16 00:28:32;;;;;;;;;;;;;;;;;;1043987;28;20652;-75
2023/01/16 00:29:03;;;;;;;;;;;;;;;;;;1050778;28;19923;-76
2023/01/16 00:29:34;;;;;;;;;;;;;;;;;;1044876;28;19917;-77
2023/01/16 00:30:05;;;;;;;;;;;;;;;;;;1039539;28;20620;-76
2023/01/16 00:30:36;;;;;;;;;;;;;;;;;;1039439;28;20619;-76
2023/01/16 00:31:07;;;;;;;;;;;;;;;;;;1039397;28;19913;-77
2023/01/16 00:31:38;;;;;;;;;;;;;;;;;;1039712;28;20662;-76
2023/01/16 00:32:10;;;;;;;;;;;;;;;;;;1040634;28;19963;-76
2023/01/16 00:32:40;;;;;;;;;;;;;;;;;;1044111;28;19912;-77
2023/01/16 00:33:11;;;;;;;;;;;;;;;;;;1047708;28;19999;-76
2023/01/16 00:33:42;;;;;;;;;;;;;;;;;;1047789;28;20426;-77
2023/01/16 00:34:13;;;;;;;;;;;;;;;;;;1047215;28;20397;-76
2023/01/16 00:34:44;;;;;;;;;;;;;;;;;;1048427;28;19924;-76
2023/01/16 00:35:15;;;;;;;;;;;;;;;;;;1048264;28;20490;-78
2023/01/16 00:35:46;;;;;;;;;;;;;;;;;;1048092;28;19955;-76
2023/01/16 00:36:17;;;;;;;;;;;;;;;;;;1047985;28;19958;-77
2023/01/16 00:36:47;;;;;;;;;;;;;;;;;;1048072;28;19912;-77
2023/01/16 00:37:18;;;;;;;;;;;;;;;;;;1047615;28;19920;-76
2023/01/16 00:37:49;;;;;;;;;;;;;;;;;;1043280;28;20752;-77
2023/01/16 00:38:20;;;;;;;;;;;;;;;;;;1043684;28;20458;-76
2023/01/16 00:38:51;;;;;;;;;;;;;;;;;;1043499;28;20827;-76
2023/01/16 00:39:22;;;;;;;;;;;;;;;;;;1043599;28;19920;-77
2023/01/16 00:39:53;;;;;;;;;;;;;;;;;;1047950;28;19920;-77
2023/01/16 00:40:24;;;;;;;;;;;;;;;;;;1048068;28;19912;-77
2023/01/16 00:40:55;;;;;;;;;;;;;;;;;;1043400;28;20023;-77
2023/01/16 00:41:25;;;;;;;;;;;;;;;;;;1043728;28;20451;-76
2023/01/16 00:41:56;;;;;;;;;;;;;;;;;;1043314;28;20369;-77
2023/01/16 00:42:27;;;;;;;;;;;;;;;;;;1043875;28;19923;-77
2023/01/16 00:42:58;;;;;;;;;;;;;;;;;;1047868;28;19913;-76
2023/01/16 00:43:29;;;;;;;;;;;;;;;;;;1043557;28;19970;-77
2023/01/16 00:44:00;;;;;;;;;;;;;;;;;;1043187;28;20367;-76
2023/01/16 00:44:31;;;;;;;;;;;;;;;;;;1039325;28;20004;-77
2023/01/16 00:45:02;;;;;;;;;;;;;;;;;;1039252;28;19974;-77
2023/01/16 00:45:32;;;;;;;;;;;;;;;;;;1039529;28;20528;-76
2023/01/16 00:46:03;;;;;;;;;;;;;;;;;;1041569;28;20462;-77
2023/01/16 00:46:34;;;;;;;;;;;;;;;;;;1043646;28;19920;-77
2023/01/16 00:47:05;;;;;;;;;;;;;;;;;;1043726;28;19999;-76
2023/01/16 00:47:36;;;;;;;;;;;;;;;;;;1046564;28;19911;-77
2023/01/16 00:48:07;;;;;;;;;;;;;;;;;;1043447;28;19955;-77
2023/01/16 00:48:38;;;;;;;;;;;;;;;;;;1043728;28;19910;-77
2023/01/16 00:49:09;;;;;;;;;;;;;;;;;;1042625;28;20405;-77
2023/01/16 00:49:40;;;;;;;;;;;;;;;;;;1041041;28;19915;-76
2023/01/16 00:50:10;;;;;;;;;;;;;;;;;;1038977;28;19915;-75
2023/01/16 00:50:41;;;;;;;;;;;;;;;;;;1036522;28;19905;-76
2023/01/16 00:51:12;;;;;;;;;;;;;;;;;;1043170;28;19908;-75
2023/01/16 00:51:43;;;;;;;;;;;;;;;;;;1043448;28;19913;-75
2023/01/16 00:52:14;;;;;;;;;;;;;;;;;;1043109;28;20612;-78
2023/01/16 00:52:45;;;;;;;;;;;;;;;;;;1043667;28;19909;-76
2023/01/16 00:53:16;;;;;;;;;;;;;;;;;;1043311;28;19916;-77
2023/01/16 00:53:47;;;;;;;;;;;;;;;;;;1043835;28;20015;-77
2023/01/16 00:54:17;;;;;;;;;;;;;;;;;;1041366;28;19920;-77
2023/01/16 00:54:48;;;;;;;;;;;;;;;;;;1052532;28;20057;-77
2023/01/16 00:55:19;;;;;;;;;;;;;;;;;;1047669;28;19908;-76
2023/01/16 00:55:50;;;;;;;;;;;;;;;;;;1045608;28;19914;-75
2023/01/16 00:56:21;;;;;;;;;;;;;;;;;;1043619;28;19940;-76
2023/01/16 00:56:52;;;;;;;;;;;;;;;;;;1039766;28;19928;-76
2023/01/16 00:57:23;;;;;;;;;;;;;;;;;;1043847;28;20383;-77
2023/01/16 00:57:53;;;;;;;;;;;;;;;;;;1039159;28;19963;-77
2023/01/16 00:58:27;;;;;;;;;;;;;;;;;;1039436;28;20456;-76
2023/01/16 00:58:58;;;;;;;;;;;;;;;;;;1043317;28;19913;-76
2023/01/16 00:59:29;;;;;;;;;;;;;;;;;;1043418;28;19916;-77
2023/01/16 01:00:00;;;;;;;;;;;;;;;;;;1039762;28;19909;-76
2023/01/16 01:00:30;;;;;;;;;;;;;;;;;;1043359;28;20279;-77
2023/01/16 01:01:01;;;;;;;;;;;;;;;;;;1043408;28;19992;-77
2023/01/16 01:01:32;;;;;;;;;;;;;;;;;;1039340;28;19909;-77
2023/01/16 01:02:03;;;;;;;;;;;;;;;;;;1039286;28;20564;-77
2023/01/16 01:02:34;;;;;;;;;;;;;;;;;;1037786;28;19909;-76
2023/01/16 01:03:05;;;;;;;;;;;;;;;;;;1038883;28;19915;-77
2023/01/16 01:03:36;;;;;;;;;;;;;;;;;;1039438;28;19909;-77
2023/01/16 01:04:07;;;;;;;;;;;;;;;;;;1035217;28;19909;-77
2023/01/16 01:04:38;;;;;;;;;;;;;;;;;;1039631;28;19909;-76
2023/01/16 01:05:09;;;;;;;;;;;;;;;;;;1039224;28;20400;-77
2023/01/16 01:05:40;;;;;;;;;;;;;;;;;;1039905;28;19943;-77
2023/01/16 01:06:13;;;;;;;;;;;;;;;;;;1043915;28;19908;-77
2023/01/16 01:06:44;;;;;;;;;;;;;;;;;;1047973;28;19924;-77
2023/01/16 01:07:15;;;;;;;;;;;;;;;;;;1047729;28;19912;-76
2023/01/16 01:07:46;;;;;;;;;;;;;;;;;;1043510;28;19931;-77
2023/01/16 01:08:17;;;;;;;;;;;;;;;;;;1042754;28;19908;-77
2023/01/16 01:08:48;;;;;;;;;;;;;;;;;;1043575;28;19913;-77
2023/01/16 01:09:18;;;;;;;;;;;;;;;;;;1040456;28;19919;-76
2023/01/16 01:09:49;;;;;;;;;;;;;;;;;;1041803;28;19917;-77
2023/01/16 01:10:20;;;;;;;;;;;;;;;;;;1043245;28;19948;-76
2023/01/16 01:10:51;;;;;;;;;;;;;;;;;;1043255;28;19913;-77
2023/01/16 01:11:22;;;;;;;;;;;;;;;;;;1043483;28;19913;-78
2023/01/16 01:11:53;;;;;;;;;;;;;;;;;;1043625;28;20596;-77
2023/01/16 01:12:24;;;;;;;;;;;;;;;;;;1047794;28;20700;-78
2023/01/16 01:12:55;;;;;;;;;;;;;;;;;;1043382;28;19920;-78
2023/01/16 01:13:26;;;;;;;;;;;;;;;;;;1043338;28;20356;-77
2023/01/16 01:13:57;;;;;;;;;;;;;;;;;;1039324;28;20383;-76
2023/01/16 01:14:28;;;;;;;;;;;;;;;;;;1035176;28;20400;-78
2023/01/16 01:14:58;;;;;;;;;;;;;;;;;;1038241;28;19924;-77
2023/01/16 01:15:29;;;;;;;;;;;;;;;;;;1039562;28;20367;-78
2023/01/16 01:16:00;;;;;;;;;;;;;;;;;;1039423;28;19913;-77
2023/01/16 01:16:31;;;;;;;;;;;;;;;;;;1038203;28;19960;-76
2023/01/16 01:17:02;;;;;;;;;;;;;;;;;;1035332;28;19913;-76
2023/01/16 01:17:33;;;;;;;;;;;;;;;;;;1031378;28;19918;-76
2023/01/16 01:18:04;;;;;;;;;;;;;;;;;;1038869;28;20352;-76
2023/01/16 01:18:34;;;;;;;;;;;;;;;;;;1041335;28;19917;-76
2023/01/16 01:19:05;;;;;;;;;;;;;;;;;;1043950;28;19963;-77
2023/01/16 01:19:36;;;;;;;;;;;;;;;;;;1047699;28;20056;-77
2023/01/16 01:20:07;;;;;;;;;;;;;;;;;;1047915;28;19918;-76
2023/01/16 01:20:38;;;;;;;;;;;;;;;;;;1047951;28;20562;-77
2023/01/16 01:21:09;;;;;;;;;;;;;;;;;;1048106;28;19913;-77
2023/01/16 01:21:40;;;;;;;;;;;;;;;;;;1047945;28;20434;-78
2023/01/16 01:22:10;;;;;;;;;;;;;;;;;;1047762;28;19962;-76
2023/01/16 01:22:41;;;;;;;;;;;;;;;;;;1043414;28;20318;-77
2023/01/16 01:23:12;;;;;;;;;;;;;;;;;;1043609;28;19931;-76
2023/01/16 01:23:43;;;;;;;;;;;;;;;;;;1043495;28;20474;-77
2023/01/16 01:24:14;;;;;;;;;;;;;;;;;;1043532;28;19909;-76
2023/01/16 01:24:45;;;;;;;;;;;;;;;;;;1042796;28;20383;-76
2023/01/16 01:25:16;;;;;;;;;;;;;;;;;;1039408;28;19921;-76
2023/01/16 01:25:47;;;;;;;;;;;;;;;;;;1041846;28;20297;-76
2023/01/16 01:26:17;;;;;;;;;;;;;;;;;;1043450;28;20042;-76
2023/01/16 01:26:48;;;;;;;;;;;;;;;;;;1039589;28;19936;-76
2023/01/16 01:27:19;;;;;;;;;;;;;;;;;;1039198;28;20079;-76
2023/01/16 01:27:50;;;;;;;;;;;;;;;;;;1039292;28;19931;-77
2023/01/16 01:28:21;;;;;;;;;;;;;;;;;;1039546;28;19923;-76
2023/01/16 01:28:52;;;;;;;;;;;;;;;;;;1043728;28;19909;-76
2023/01/16 01:29:23;;;;;;;;;;;;;;;;;;1043264;28;20004;-76
2023/01/16 01:29:53;;;;;;;;;;;;;;;;;;1044286;28;19916;-76
2023/01/16 01:30:24;;;;;;;;;;;;;;;;;;1047618;28;20532;-77
2023/01/16 01:30:55;;;;;;;;;;;;;;;;;;1047626;28;19948;-77
2023/01/16 01:31:26;;;;;;;;;;;;;;;;;;1046831;28;20338;-77
2023/01/16 01:31:57;;;;;;;;;;;;;;;;;;1039141;28;19909;-76
2023/01/16 01:32:28;;;;;;;;;;;;;;;;;;1043639;28;20390;-76
2023/01/16 01:32:59;;;;;;;;;;;;;;;;;;1039282;28;19916;-77
2023/01/16 01:33:29;;;;;;;;;;;;;;;;;;1036817;28;19913;-77
2023/01/16 01:34:00;;;;;;;;;;;;;;;;;;1035246;28;19933;-78
2023/01/16 01:34:33;;;;;;;;;;;;;;;;;;1035308;28;19932;-77
2023/01/16 01:35:04;;;;;;;;;;;;;;;;;;1037328;28;19917;-76
2023/01/16 01:35:35;;;;;;;;;;;;;;;;;;1043587;28;19913;-77
2023/01/16 01:36:06;;;;;;;;;;;;;;;;;;1039782;28;19909;-77
2023/01/16 01:36:37;;;;;;;;;;;;;;;;;;1043304;28;20627;-77
2023/01/16 01:37:08;;;;;;;;;;;;;;;;;;1043686;28;19916;-76
2023/01/16 01:37:39;;;;;;;;;;;;;;;;;;1043528;28;19908;-76
2023/01/16 01:38:09;;;;;;;;;;;;;;;;;;1043425;28;19909;-77
2023/01/16 01:38:40;;;;;;;;;;;;;;;;;;1042968;28;20015;-77
2023/01/16 01:39:11;;;;;;;;;;;;;;;;;;1039545;28;19905;-77
2023/01/16 01:39:42;;;;;;;;;;;;;;;;;;1043237;28;20627;-76
2023/01/16 01:40:13;;;;;;;;;;;;;;;;;;1039393;28;19913;-77
2023/01/16 01:40:44;;;;;;;;;;;;;;;;;;1035469;28;20328;-77
2023/01/16 01:41:15;;;;;;;;;;;;;;;;;;1035110;28;20008;-77
2023/01/16 01:41:45;;;;;;;;;;;;;;;;;;1035012;28;19920;-76
2023/01/16 01:43:06;;;;;;;;;;;;;;;;;;1042150;28;20052;-76
2023/01/16 01:43:37;;;;;;;;;;;;;;;;;;1046723;28;19908;-77
2023/01/16 01:44:07;;;;;;;;;;;;;;;;;;1043331;28;20384;-76
2023/01/16 01:44:38;;;;;;;;;;;;;;;;;;1043440;28;19970;-77
2023/01/16 01:45:09;;;;;;;;;;;;;;;;;;1043165;28;19968;-77
2023/01/16 01:45:40;;;;;;;;;;;;;;;;;;1043494;28;20019;-76
2023/01/16 01:46:11;;;;;;;;;;;;;;;;;;1043318;28;19919;-76
2023/01/16 01:46:42;;;;;;;;;;;;;;;;;;1043674;28;19921;-76
2023/01/16 01:47:13;;;;;;;;;;;;;;;;;;1043329;28;19913;-76
2023/01/16 01:47:44;;;;;;;;;;;;;;;;;;1043607;28;19912;-77
2023/01/16 01:48:14;;;;;;;;;;;;;;;;;;1043075;28;19919;-77
2023/01/16 01:48:45;;;;;;;;;;;;;;;;;;1041703;28;19913;-76
2023/01/16 01:49:16;;;;;;;;;;;;;;;;;;1045882;28;20101;-77
2023/01/16 01:49:47;;;;;;;;;;;;;;;;;;1047491;28;20024;-77
2023/01/16 01:50:18;;;;;;;;;;;;;;;;;;1046599;28;19919;-76
2023/01/16 01:50:49;;;;;;;;;;;;;;;;;;1043940;28;19935;-77
2023/01/16 01:51:20;;;;;;;;;;;;;;;;;;1043399;28;19999;-76
2023/01/16 01:51:51;;;;;;;;;;;;;;;;;;1043404;28;20337;-77
2023/01/16 01:52:21;;;;;;;;;;;;;;;;;;1043522;28;20027;-77
2023/01/16 01:52:52;;;;;;;;;;;;;;;;;;1043432;28;19917;-76
2023/01/16 01:53:23;;;;;;;;;;;;;;;;;;1043783;28;19913;-76
2023/01/16 01:53:54;;;;;;;;;;;;;;;;;;1041351;28;20059;-76
2023/01/16 01:54:25;;;;;;;;;;;;;;;;;;1043499;28;19912;-76
2023/01/16 01:54:56;;;;;;;;;;;;;;;;;;1043493;28;19919;-77
2023/01/16 01:55:27;;;;;;;;;;;;;;;;;;1043480;28;20379;-77
2023/01/16 01:55:57;;;;;;;;;;;;;;;;;;1043423;28;19967;-76
2023/01/16 01:56:28;;;;;;;;;;;;;;;;;;1043334;28;20368;-77
2023/01/16 01:56:59;;;;;;;;;;;;;;;;;;1043384;28;20022;-77
2023/01/16 01:57:30;;;;;;;;;;;;;;;;;;1042758;28;19913;-76
2023/01/16 01:58:01;;;;;;;;;;;;;;;;;;1043804;28;19921;-77
2023/01/16 01:58:32;;;;;;;;;;;;;;;;;;1047843;28;20009;-76
2023/01/16 01:59:03;;;;;;;;;;;;;;;;;;1047626;28;19930;-77
2023/01/16 01:59:33;;;;;;;;;;;;;;;;;;1047734;28;19948;-77
2023/01/16 02:00:04;;;;;;;;;;;;;;;;;;1047928;28;19912;-77
2023/01/16 02:00:35;;;;;;;;;;;;;;;;;;1047576;28;19916;-77
2023/01/16 02:01:06;;;;;;;;;;;;;;;;;;1043513;28;20186;-76
2023/01/16 02:01:37;;;;;;;;;;;;;;;;;;1043177;28;19913;-77
2023/01/16 02:02:08;;;;;;;;;;;;;;;;;;1043407;28;19920;-77
2023/01/16 02:02:39;;;;;;;;;;;;;;;;;;1043302;28;19999;-77
2023/01/16 02:03:10;;;;;;;;;;;;;;;;;;1043329;28;19939;-77
2023/01/16 02:03:41;;;;;;;;;;;;;;;;;;1043673;28;19913;-76
2023/01/16 02:04:11;;;;;;;;;;;;;;;;;;1046655;28;19963;-77
2023/01/16 02:04:42;;;;;;;;;;;;;;;;;;1047584;28;19913;-76
2023/01/16 02:05:13;;;;;;;;;;;;;;;;;;1043267;28;19913;-77
2023/01/16 02:05:44;;;;;;;;;;;;;;;;;;1039710;28;19921;-76
2023/01/16 02:06:15;;;;;;;;;;;;;;;;;;1039162;28;20472;-76
2023/01/16 02:06:46;;;;;;;;;;;;;;;;;;1044469;28;20769;-77
2023/01/16 02:07:17;;;;;;;;;;;;;;;;;;1044703;28;19917;-76
2023/01/16 02:07:48;;;;;;;;;;;;;;;;;;1043391;28;20268;-77
2023/01/16 02:08:19;;;;;;;;;;;;;;;;;;1043390;28;19963;-77
2023/01/16 02:08:50;;;;;;;;;;;;;;;;;;1043173;28;19912;-76
2023/01/16 02:09:21;;;;;;;;;;;;;;;;;;1039433;28;20602;-76
2023/01/16 02:09:52;;;;;;;;;;;;;;;;;;1043305;28;19913;-77
2023/01/16 02:10:23;;;;;;;;;;;;;;;;;;1043198;28;19912;-76
2023/01/16 02:10:53;;;;;;;;;;;;;;;;;;1043645;28;19915;-76
2023/01/16 02:11:27;;;;;;;;;;;;;;;;;;1047808;28;19944;-76
2023/01/16 02:12:00;;;;;;;;;;;;;;;;;;1047663;28;19913;-77
2023/01/16 02:12:31;;;;;;;;;;;;;;;;;;1047800;28;20000;-76
2023/01/16 02:13:02;;;;;;;;;;;;;;;;;;1048071;28;19973;-76
2023/01/16 02:13:32;;;;;;;;;;;;;;;;;;1047854;28;19912;-76
2023/01/16 02:14:03;;;;;;;;;;;;;;;;;;1043052;28;19956;-77
2023/01/16 02:14:34;;;;;;;;;;;;;;;;;;1043489;28;19912;-77
2023/01/16 02:15:05;;;;;;;;;;;;;;;;;;1043402;28;20015;-77
2023/01/16 02:15:36;;;;;;;;;;;;;;;;;;1041910;28;19913;-76
2023/01/16 02:19:25;;;;;;;;;;;;;;;;;;1045729;28;19924;-77
2023/01/16 02:19:56;;;;;;;;;;;;;;;;;;1047639;28;19943;-77
2023/01/16 02:20:27;;;;;;;;;;;;;;;;;;1047897;28;20698;-77
2023/01/16 02:20:58;;;;;;;;;;;;;;;;;;1047689;28;19913;-76
2023/01/16 02:21:29;;;;;;;;;;;;;;;;;;1047906;28;19935;-77
2023/01/16 02:22:00;;;;;;;;;;;;;;;;;;1047370;28;19919;-76
2023/01/16 02:22:30;;;;;;;;;;;;;;;;;;1047732;28;19912;-77
2023/01/16 02:23:04;;;;;;;;;;;;;;;;;;1043338;28;20568;-76
2023/01/16 02:23:35;;;;;;;;;;;;;;;;;;1043498;28;19919;-77
2023/01/16 02:24:06;;;;;;;;;;;;;;;;;;1040821;28;19955;-77
2023/01/16 02:24:37;;;;;;;;;;;;;;;;;;1039775;28;19917;-77
2023/01/16 02:25:08;;;;;;;;;;;;;;;;;;1043349;28;19919;-77
2023/01/16 02:25:39;;;;;;;;;;;;;;;;;;1046839;28;19915;-77
2023/01/16 02:26:10;;;;;;;;;;;;;;;;;;1043041;28;19916;-78
2023/01/16 02:26:41;;;;;;;;;;;;;;;;;;1039184;28;19923;-77
2023/01/16 02:27:12;;;;;;;;;;;;;;;;;;1038961;28;19913;-77
2023/01/16 02:27:43;;;;;;;;;;;;;;;;;;1039601;28;20400;-77
2023/01/16 02:28:13;;;;;;;;;;;;;;;;;;1043259;28;20016;-77
2023/01/16 02:28:44;;;;;;;;;;;;;;;;;;1048199;28;19912;-76
2023/01/16 02:29:15;;;;;;;;;;;;;;;;;;1047561;28;19922;-77
2023/01/16 02:29:46;;;;;;;;;;;;;;;;;;1043309;28;19935;-77
2023/01/16 02:30:17;;;;;;;;;;;;;;;;;;1043211;28;20718;-77
2023/01/16 02:30:48;;;;;;;;;;;;;;;;;;1039243;28;19940;-77
2023/01/16 02:31:19;;;;;;;;;;;;;;;;;;1039158;28;20365;-77
2023/01/16 02:31:50;;;;;;;;;;;;;;;;;;1043429;28;19913;-77
2023/01/16 02:32:20;;;;;;;;;;;;;;;;;;1039124;28;20539;-76
2023/01/16 02:32:51;;;;;;;;;;;;;;;;;;1039406;28;19909;-77
2023/01/16 02:33:22;;;;;;;;;;;;;;;;;;1043271;28;20702;-78
2023/01/16 02:33:53;;;;;;;;;;;;;;;;;;1043112;28;20693;-76
2023/01/16 02:34:24;;;;;;;;;;;;;;;;;;1042943;28;19913;-78
2023/01/16 02:34:55;;;;;;;;;;;;;;;;;;1043215;28;20474;-77
2023/01/16 02:35:26;;;;;;;;;;;;;;;;;;1043034;28;19913;-76
2023/01/16 02:35:57;;;;;;;;;;;;;;;;;;1039134;28;20364;-77
2023/01/16 02:36:27;;;;;;;;;;;;;;;;;;1039261;28;19995;-77
2023/01/16 02:36:58;;;;;;;;;;;;;;;;;;1043669;28;20426;-77
2023/01/16 02:37:29;;;;;;;;;;;;;;;;;;1047605;28;19912;-78
2023/01/16 02:38:00;;;;;;;;;;;;;;;;;;1047738;28;20651;-77
2023/01/16 02:38:31;;;;;;;;;;;;;;;;;;1047742;28;19962;-77
2023/01/16 02:39:02;;;;;;;;;;;;;;;;;;1043178;28;19913;-76
2023/01/16 02:39:33;;;;;;;;;;;;;;;;;;1043105;28;19996;-76
2023/01/16 02:40:03;;;;;;;;;;;;;;;;;;1039042;28;19991;-76
2023/01/16 02:40:34;;;;;;;;;;;;;;;;;;1039143;28;19913;-76
2023/01/16 02:41:05;;;;;;;;;;;;;;;;;;1038997;28;20067;-77
2023/01/16 02:41:41;;;;;;;;;;;;;;;;;;1039308;28;19909;-78
2023/01/16 02:42:12;;;;;;;;;;;;;;;;;;1043307;28;20356;-77
2023/01/16 02:42:43;;;;;;;;;;;;;;;;;;1040201;28;20689;-77
2023/01/16 02:43:14;;;;;;;;;;;;;;;;;;1043052;28;19905;-77
2023/01/16 02:43:45;;;;;;;;;;;;;;;;;;1043093;28;19909;-77
2023/01/16 02:44:16;;;;;;;;;;;;;;;;;;1046884;28;19904;-76
2023/01/16 02:44:47;;;;;;;;;;;;;;;;;;1041556;28;19909;-77
2023/01/16 02:45:18;;;;;;;;;;;;;;;;;;1043488;28;19916;-77
2023/01/16 02:45:48;;;;;;;;;;;;;;;;;;1047617;28;19944;-77
2023/01/16 02:46:19;;;;;;;;;;;;;;;;;;1047881;28;19912;-77
2023/01/16 02:46:50;;;;;;;;;;;;;;;;;;1045830;28;19951;-77
2023/01/16 02:47:21;;;;;;;;;;;;;;;;;;1043516;28;19913;-77
2023/01/16 02:47:52;;;;;;;;;;;;;;;;;;1043184;28;19916;-77
2023/01/16 02:48:23;;;;;;;;;;;;;;;;;;1039446;28;20004;-76
2023/01/16 02:48:54;;;;;;;;;;;;;;;;;;1039749;28;19913;-78
2023/01/16 02:49:25;;;;;;;;;;;;;;;;;;1043547;28;19999;-77
2023/01/16 02:49:56;;;;;;;;;;;;;;;;;;1042862;28;19947;-77
2023/01/16 02:50:27;;;;;;;;;;;;;;;;;;1043604;28;20279;-77
2023/01/16 02:50:57;;;;;;;;;;;;;;;;;;1047631;28;19916;-78
2023/01/16 02:51:28;;;;;;;;;;;;;;;;;;1041082;28;20303;-77
2023/01/16 02:51:59;;;;;;;;;;;;;;;;;;1043033;28;19960;-77
2023/01/16 02:52:30;;;;;;;;;;;;;;;;;;1043347;28;19912;-76
2023/01/16 02:53:01;;;;;;;;;;;;;;;;;;1038727;28;20478;-77
2023/01/16 02:53:32;;;;;;;;;;;;;;;;;;1037236;28;19910;-77
2023/01/16 02:54:03;;;;;;;;;;;;;;;;;;1039050;28;19945;-78
2023/01/16 02:54:35;;;;;;;;;;;;;;;;;;1039579;28;20698;-76
2023/01/16 02:55:06;;;;;;;;;;;;;;;;;;1043161;28;19952;-77
2023/01/16 02:55:36;;;;;;;;;;;;;;;;;;1043617;28;19913;-77
2023/01/16 02:56:12;;;;;;;;;;;;;;;;;;1047793;28;19933;-78
2023/01/16 02:56:45;;;;;;;;;;;;;;;;;;1047812;28;19920;-77
2023/01/16 02:57:17;;;;;;;;;;;;;;;;;;1047579;28;19999;-77
2023/01/16 02:57:48;;;;;;;;;;;;;;;;;;1047943;28;19912;-76
2023/01/16 02:58:19;;;;;;;;;;;;;;;;;;1042905;28;19913;-77
2023/01/16 02:58:49;;;;;;;;;;;;;;;;;;1043272;28;19943;-77
2023/01/16 02:59:20;;;;;;;;;;;;;;;;;;1043188;28;20003;-76
2023/01/16 02:59:51;;;;;;;;;;;;;;;;;;1043317;28;19913;-76
2023/01/16 03:00:22;;;;;;;;;;;;;;;;;;1043202;28;19919;-77
2023/01/16 03:00:53;;;;;;;;;;;;;;;;;;1043139;28;20450;-76
2023/01/16 03:01:24;;;;;;;;;;;;;;;;;;1044872;28;19928;-76
2023/01/16 03:01:55;;;;;;;;;;;;;;;;;;1045898;28;19912;-77
2023/01/16 03:02:26;;;;;;;;;;;;;;;;;;1039253;28;19920;-76
2023/01/16 03:02:56;;;;;;;;;;;;;;;;;;1039329;28;20384;-76
2023/01/16 03:03:27;;;;;;;;;;;;;;;;;;1043673;28;19913;-76
2023/01/16 03:03:58;;;;;;;;;;;;;;;;;;1039046;28;20046;-77
2023/01/16 03:04:29;;;;;;;;;;;;;;;;;;1039065;28;19913;-76
2023/01/16 03:05:00;;;;;;;;;;;;;;;;;;1042395;28;19913;-76
2023/01/16 03:05:31;;;;;;;;;;;;;;;;;;1036788;28;19945;-76
2023/01/16 03:06:02;;;;;;;;;;;;;;;;;;1035171;28;19963;-76
2023/01/16 03:06:32;;;;;;;;;;;;;;;;;;1039067;28;19920;-76
2023/01/16 03:07:03;;;;;;;;;;;;;;;;;;1037941;28;19991;-76
2023/01/16 03:07:34;;;;;;;;;;;;;;;;;;1039420;28;20682;-76
2023/01/16 03:08:05;;;;;;;;;;;;;;;;;;1043317;28;19908;-76
2023/01/16 03:08:36;;;;;;;;;;;;;;;;;;1043528;28;19909;-76
2023/01/16 03:09:07;;;;;;;;;;;;;;;;;;1047540;28;19987;-76
2023/01/16 03:09:38;;;;;;;;;;;;;;;;;;1047803;28;19927;-76
2023/01/16 03:10:09;;;;;;;;;;;;;;;;;;1047760;28;20426;-76
2023/01/16 03:10:40;;;;;;;;;;;;;;;;;;1047809;28;19999;-76
2023/01/16 03:11:11;;;;;;;;;;;;;;;;;;1042940;28;19909;-77
2023/01/16 03:11:42;;;;;;;;;;;;;;;;;;1039732;28;19916;-77
2023/01/16 03:12:12;;;;;;;;;;;;;;;;;;1040305;28;19935;-77
2023/01/16 03:12:43;;;;;;;;;;;;;;;;;;1043956;28;19940;-77
2023/01/16 03:13:14;;;;;;;;;;;;;;;;;;1047416;28;20046;-76
2023/01/16 03:13:46;;;;;;;;;;;;;;;;;;1047889;28;19909;-77
2023/01/16 03:14:17;;;;;;;;;;;;;;;;;;1043128;28;19916;-77
2023/01/16 03:14:48;;;;;;;;;;;;;;;;;;1043388;28;19995;-76
2023/01/16 03:15:18;;;;;;;;;;;;;;;;;;1042982;28;19999;-76
2023/01/16 03:15:49;;;;;;;;;;;;;;;;;;1043045;28;20465;-78
2023/01/16 03:16:20;;;;;;;;;;;;;;;;;;1047442;28;19908;-77
2023/01/16 03:16:51;;;;;;;;;;;;;;;;;;1043305;28;19974;-75
2023/01/16 03:17:22;;;;;;;;;;;;;;;;;;1042910;28;19948;-77
2023/01/16 03:17:53;;;;;;;;;;;;;;;;;;1043201;28;19913;-77
2023/01/16 03:18:24;;;;;;;;;;;;;;;;;;1043195;28;19916;-77
2023/01/16 03:18:55;;;;;;;;;;;;;;;;;;1045453;28;19911;-78
2023/01/16 03:19:25;;;;;;;;;;;;;;;;;;1043124;28;19942;-77
2023/01/16 03:19:56;;;;;;;;;;;;;;;;;;1048789;28;19912;-77
2023/01/16 03:20:27;;;;;;;;;;;;;;;;;;1047889;28;19915;-77
2023/01/16 03:20:58;;;;;;;;;;;;;;;;;;1043250;28;20340;-76
2023/01/16 03:21:29;;;;;;;;;;;;;;;;;;1042929;28;19909;-77
2023/01/16 03:22:00;;;;;;;;;;;;;;;;;;1038994;28;19952;-76
2023/01/16 03:22:31;;;;;;;;;;;;;;;;;;1039160;28;19910;-78
2023/01/16 03:23:02;;;;;;;;;;;;;;;;;;1039015;28;19909;-76
2023/01/16 03:23:32;;;;;;;;;;;;;;;;;;1039263;28;19948;-77
2023/01/16 03:24:03;;;;;;;;;;;;;;;;;;1041834;28;19916;-76
2023/01/16 03:24:34;;;;;;;;;;;;;;;;;;1040772;28;19939;-77
2023/01/16 03:25:05;;;;;;;;;;;;;;;;;;1047411;28;19943;-76
2023/01/16 03:25:36;;;;;;;;;;;;;;;;;;1043190;28;19908;-76
2023/01/16 03:26:07;;;;;;;;;;;;;;;;;;1043029;28;19916;-77
2023/01/16 03:26:38;;;;;;;;;;;;;;;;;;1043409;28;19996;-77
2023/01/16 03:27:08;;;;;;;;;;;;;;;;;;1043328;28;19913;-77
2023/01/16 03:27:39;;;;;;;;;;;;;;;;;;1047957;28;19912;-77
2023/01/16 03:28:13;;;;;;;;;;;;;;;;;;1047368;28;19985;-75
2023/01/16 03:28:44;;;;;;;;;;;;;;;;;;1043256;28;19920;-76
2023/01/16 03:29:15;;;;;;;;;;;;;;;;;;1042942;28;19958;-76
2023/01/16 03:29:46;;;;;;;;;;;;;;;;;;1042580;28;20009;-77
2023/01/16 03:30:17;;;;;;;;;;;;;;;;;;1042945;28;19943;-76
2023/01/16 03:30:48;;;;;;;;;;;;;;;;;;1043825;28;19919;-76
2023/01/16 03:31:19;;;;;;;;;;;;;;;;;;1047292;28;19920;-77
2023/01/16 03:31:50;;;;;;;;;;;;;;;;;;1043122;28;20000;-77
2023/01/16 03:32:20;;;;;;;;;;;;;;;;;;1042755;28;19927;-76
2023/01/16 03:32:51;;;;;;;;;;;;;;;;;;1043181;28;20412;-76
2023/01/16 03:33:22;;;;;;;;;;;;;;;;;;1038935;28;19909;-77
2023/01/16 03:33:58;;;;;;;;;;;;;;;;;;1039294;28;19963;-76
2023/01/16 03:34:29;;;;;;;;;;;;;;;;;;1042598;28;19955;-76
2023/01/16 03:35:00;;;;;;;;;;;;;;;;;;1040148;28;19923;-76
2023/01/16 03:35:31;;;;;;;;;;;;;;;;;;1043243;28;20411;-77